createdAt,value
2019-02-03T00:00:50.502Z,67.00
2019-02-03T00:01:50.506Z,69.30
2019-02-03T00:02:50.509Z,67.00
2019-02-03T00:03:50.537Z,69.00
2019-02-03T00:04:50.516Z,66.40
2019-02-03T00:05:50.508Z,63.10
2019-02-03T00:07:02.653Z,65.80
2019-02-03T00:07:50.512Z,66.50
2019-02-03T00:08:50.516Z,64.10
2019-02-03T00:10:50.520Z,65.70
2019-02-03T00:11:50.522Z,64.30
2019-02-03T00:12:50.518Z,65.30
2019-02-03T00:13:50.517Z,65.50
2019-02-03T00:14:50.531Z,66.70
2019-02-03T00:15:50.520Z,60.50
2019-02-03T00:16:50.524Z,66.80
2019-02-03T00:17:50.532Z,67.80
2019-02-03T00:18:50.538Z,70.40
2019-02-03T00:19:50.532Z,70.60
2019-02-03T00:20:50.546Z,71.10
2019-02-03T00:21:50.530Z,69.50
2019-02-03T00:22:50.542Z,68.80
2019-02-03T00:24:11.556Z,71.60
2019-02-03T00:24:50.538Z,67.30
2019-02-03T00:25:50.538Z,64.40
2019-02-03T00:26:50.543Z,65.80
2019-02-03T00:27:50.551Z,66.30
2019-02-03T00:28:50.543Z,69.00
2019-02-03T00:29:50.538Z,66.80
2019-02-03T00:30:50.543Z,65.90
2019-02-03T00:31:50.553Z,68.90
2019-02-03T00:32:51.723Z,66.40
2019-02-03T00:33:50.571Z,64.50
2019-02-03T00:34:50.554Z,64.50
2019-02-03T00:35:50.567Z,61.70
2019-02-03T00:36:50.674Z,65.40
2019-02-03T00:37:50.644Z,71.70
2019-02-03T00:38:50.683Z,69.70
2019-02-03T00:39:50.708Z,70.00
2019-02-03T00:40:50.675Z,62.70
2019-02-03T00:41:50.682Z,65.00
2019-02-03T00:42:50.572Z,68.10
2019-02-03T00:43:50.577Z,68.50
2019-02-03T00:44:50.566Z,69.30
2019-02-03T00:45:50.563Z,70.10
2019-02-03T00:46:50.564Z,69.40
2019-02-03T00:47:50.568Z,67.60
2019-02-03T00:48:50.568Z,69.30
2019-02-03T00:49:50.575Z,67.80
2019-02-03T00:50:50.567Z,68.10
2019-02-03T00:51:50.576Z,67.80
2019-02-03T00:52:50.577Z,65.10
2019-02-03T00:53:50.573Z,65.10
2019-02-03T00:54:50.576Z,61.90
2019-02-03T00:55:50.575Z,64.10
2019-02-03T00:56:50.576Z,64.30
2019-02-03T00:57:50.576Z,63.40
2019-02-03T00:58:50.579Z,63.70
2019-02-03T00:59:50.579Z,63.90
2019-02-03T01:00:50.579Z,64.90
2019-02-03T01:01:50.581Z,65.10
2019-02-03T01:02:50.588Z,64.90
2019-02-03T01:03:50.586Z,65.20
2019-02-03T01:05:50.597Z,69.00
2019-02-03T01:06:50.588Z,77.90
2019-02-03T01:07:50.591Z,73.30
2019-02-03T01:08:50.592Z,64.50
2019-02-03T01:09:50.592Z,65.40
2019-02-03T01:10:50.600Z,71.80
2019-02-03T01:11:50.591Z,65.70
2019-02-03T01:12:50.593Z,65.40
2019-02-03T01:13:50.600Z,65.20
2019-02-03T01:14:50.610Z,64.60
2019-02-03T01:15:50.606Z,64.70
2019-02-03T01:16:50.604Z,69.90
2019-02-03T01:17:50.605Z,67.00
2019-02-03T01:18:50.618Z,63.50
2019-02-03T01:19:50.611Z,68.50
2019-02-03T01:20:50.611Z,62.80
2019-02-03T01:21:50.608Z,64.90
2019-02-03T01:22:50.646Z,67.10
2019-02-03T01:23:50.629Z,67.80
2019-02-03T01:24:50.613Z,70.50
2019-02-03T01:25:50.637Z,70.50
2019-02-03T01:26:50.618Z,66.80
2019-02-03T01:27:50.622Z,67.70
2019-02-03T01:28:50.754Z,64.10
2019-02-03T01:30:50.621Z,64.20
2019-02-03T01:31:50.626Z,64.60
2019-02-03T01:32:50.670Z,63.80
2019-02-03T01:33:50.621Z,62.70
2019-02-03T01:34:50.624Z,63.10
2019-02-03T01:35:50.627Z,62.60
2019-02-03T01:36:50.635Z,62.40
2019-02-03T01:37:50.641Z,63.40
2019-02-03T01:38:50.635Z,61.50
2019-02-03T01:39:50.643Z,62.90
2019-02-03T01:40:50.644Z,64.10
2019-02-03T01:41:50.656Z,63.70
2019-02-03T01:42:50.630Z,64.60
2019-02-03T01:43:50.637Z,68.90
2019-02-03T01:44:50.647Z,62.90
2019-02-03T01:45:50.639Z,63.50
2019-02-03T01:46:50.686Z,68.70
2019-02-03T01:47:50.643Z,67.50
2019-02-03T01:48:50.643Z,71.90
2019-02-03T01:49:50.647Z,69.70
2019-02-03T01:50:50.640Z,68.50
2019-02-03T01:51:50.649Z,69.30
2019-02-03T01:52:50.672Z,69.10
2019-02-03T01:53:50.650Z,63.60
2019-02-03T01:54:50.653Z,69.70
2019-02-03T01:55:50.663Z,61.50
2019-02-03T01:56:50.655Z,62.80
2019-02-03T01:57:50.656Z,60.80
2019-02-03T01:58:50.659Z,62.20
2019-02-03T01:59:50.662Z,61.40
2019-02-03T02:00:50.663Z,61.40
2019-02-03T02:01:50.665Z,60.40
2019-02-03T02:02:50.667Z,60.60
2019-02-03T02:03:50.672Z,60.70
2019-02-03T02:04:50.659Z,62.10
2019-02-03T02:05:50.666Z,60.50
2019-02-03T02:06:53.004Z,61.30
2019-02-03T02:07:52.057Z,63.10
2019-02-03T02:08:50.674Z,65.10
2019-02-03T02:09:50.673Z,63.10
2019-02-03T02:10:50.673Z,65.50
2019-02-03T02:11:50.677Z,65.00
2019-02-03T02:12:50.674Z,64.00
2019-02-03T02:13:50.679Z,62.30
2019-02-03T02:14:50.682Z,63.90
2019-02-03T02:15:50.682Z,59.70
2019-02-03T02:16:50.686Z,64.60
2019-02-03T02:17:50.691Z,63.40
2019-02-03T02:19:50.685Z,65.80
2019-02-03T02:20:50.685Z,61.70
2019-02-03T02:21:50.690Z,65.80
2019-02-03T02:22:50.691Z,63.80
2019-02-03T02:23:50.697Z,64.60
2019-02-03T02:24:50.695Z,64.60
2019-02-03T02:25:50.696Z,63.70
2019-02-03T02:26:50.688Z,64.90
2019-02-03T02:27:50.694Z,62.60
2019-02-03T02:28:50.688Z,64.10
2019-02-03T02:29:50.690Z,60.90
2019-02-03T02:30:50.698Z,63.00
2019-02-03T02:31:50.699Z,62.30
2019-02-03T02:32:50.708Z,63.40
2019-02-03T02:33:50.709Z,63.10
2019-02-03T02:34:50.708Z,61.50
2019-02-03T02:35:50.707Z,60.90
2019-02-03T02:36:50.701Z,61.20
2019-02-03T02:37:56.904Z,59.60
2019-02-03T02:38:50.707Z,60.20
2019-02-03T02:39:50.708Z,60.10
2019-02-03T02:40:50.709Z,62.80
2019-02-03T02:41:50.777Z,64.90
2019-02-03T02:42:50.703Z,59.50
2019-02-03T02:43:50.704Z,62.00
2019-02-03T02:44:50.706Z,60.20
2019-02-03T02:45:50.709Z,58.10
2019-02-03T02:46:50.711Z,60.30
2019-02-03T02:47:50.714Z,60.60
2019-02-03T02:48:50.717Z,64.30
2019-02-03T02:49:50.714Z,63.30
2019-02-03T02:50:50.713Z,64.20
2019-02-03T02:51:50.714Z,64.30
2019-02-03T02:52:50.713Z,61.40
2019-02-03T02:53:50.718Z,58.60
2019-02-03T02:54:50.722Z,64.40
2019-02-03T02:55:50.717Z,62.00
2019-02-03T02:56:50.716Z,64.60
2019-02-03T02:57:50.735Z,65.00
2019-02-03T02:58:50.717Z,64.30
2019-02-03T02:59:50.721Z,65.30
2019-02-03T03:00:50.718Z,67.30
2019-02-03T03:01:50.713Z,66.00
2019-02-03T03:02:50.722Z,65.20
2019-02-03T03:03:50.725Z,64.70
2019-02-03T03:04:50.733Z,65.30
2019-02-03T03:05:50.727Z,66.20
2019-02-03T03:06:50.725Z,65.40
2019-02-03T03:07:50.723Z,68.20
2019-02-03T03:09:50.722Z,65.20
2019-02-03T03:10:50.727Z,65.10
2019-02-03T03:11:50.727Z,64.10
2019-02-03T03:12:50.731Z,64.90
2019-02-03T03:13:50.739Z,65.30
2019-02-03T03:14:50.727Z,66.50
2019-02-03T03:15:50.719Z,65.80
2019-02-03T03:16:50.725Z,64.50
2019-02-03T03:17:50.732Z,63.90
2019-02-03T03:18:50.725Z,64.10
2019-02-03T03:19:50.729Z,67.00
2019-02-03T03:20:50.733Z,64.40
2019-02-03T03:21:50.736Z,65.60
2019-02-03T03:22:50.729Z,61.60
2019-02-03T03:23:50.732Z,62.90
2019-02-03T03:24:50.740Z,64.80
2019-02-03T03:25:50.774Z,67.30
2019-02-03T03:26:50.734Z,65.60
2019-02-03T03:27:50.786Z,63.60
2019-02-03T03:28:50.740Z,63.80
2019-02-03T03:29:50.733Z,63.00
2019-02-03T03:30:50.731Z,64.30
2019-02-03T03:31:50.736Z,64.50
2019-02-03T03:32:50.758Z,65.30
2019-02-03T03:33:50.750Z,69.20
2019-02-03T03:34:50.740Z,64.00
2019-02-03T03:35:50.742Z,65.10
2019-02-03T03:36:50.738Z,66.10
2019-02-03T03:37:50.739Z,69.00
2019-02-03T03:38:50.740Z,63.80
2019-02-03T03:39:50.753Z,63.90
2019-02-03T03:40:50.741Z,61.70
2019-02-03T03:41:50.738Z,65.60
2019-02-03T03:42:50.746Z,61.00
2019-02-03T03:43:50.734Z,62.50
2019-02-03T03:44:50.741Z,63.20
2019-02-03T03:45:50.875Z,61.50
2019-02-03T03:46:50.740Z,61.90
2019-02-03T03:47:50.742Z,62.80
2019-02-03T03:48:50.749Z,64.50
2019-02-03T03:49:50.743Z,62.20
2019-02-03T03:50:50.752Z,62.00
2019-02-03T03:51:50.743Z,63.90
2019-02-03T03:52:50.753Z,64.00
2019-02-03T03:53:50.753Z,61.80
2019-02-03T03:54:50.751Z,62.30
2019-02-03T03:55:50.744Z,61.90
2019-02-03T03:56:50.761Z,64.30
2019-02-03T03:57:50.784Z,61.30
2019-02-03T03:58:50.746Z,63.20
2019-02-03T03:59:50.747Z,63.80
2019-02-03T04:00:50.753Z,60.50
2019-02-03T04:01:50.751Z,62.20
2019-02-03T04:02:50.754Z,62.60
2019-02-03T04:03:50.762Z,62.20
2019-02-03T04:04:50.754Z,61.20
2019-02-03T04:05:50.750Z,63.00
2019-02-03T04:06:50.756Z,63.50
2019-02-03T04:07:50.761Z,61.20
2019-02-03T04:08:50.751Z,65.00
2019-02-03T04:09:50.957Z,65.30
2019-02-03T04:10:50.750Z,64.60
2019-02-03T04:11:50.755Z,62.30
2019-02-03T04:12:50.819Z,61.10
2019-02-03T04:13:50.756Z,60.00
2019-02-03T04:14:50.750Z,60.90
2019-02-03T04:15:50.756Z,59.20
2019-02-03T04:16:50.753Z,60.60
2019-02-03T04:17:50.758Z,59.00
2019-02-03T04:18:51.481Z,61.00
2019-02-03T04:19:50.753Z,61.40
2019-02-03T04:20:50.753Z,61.70
2019-02-03T04:21:50.761Z,58.70
2019-02-03T04:22:50.761Z,58.60
2019-02-03T04:23:50.762Z,59.90
2019-02-03T04:24:50.775Z,60.30
2019-02-03T04:25:50.760Z,59.50
2019-02-03T04:27:50.771Z,58.90
2019-02-03T04:28:50.762Z,58.00
2019-02-03T04:29:50.764Z,57.80
2019-02-03T04:30:50.759Z,55.50
2019-02-03T04:31:50.758Z,56.70
2019-02-03T04:32:50.758Z,57.60
2019-02-03T04:33:50.762Z,56.50
2019-02-03T04:34:50.758Z,56.00
2019-02-03T04:35:50.752Z,54.70
2019-02-03T04:36:50.759Z,54.20
2019-02-03T04:37:50.763Z,54.80
2019-02-03T04:38:58.247Z,54.30
2019-02-03T04:39:50.760Z,55.10
2019-02-03T04:40:50.762Z,53.10
2019-02-03T04:41:50.760Z,52.30
2019-02-03T04:42:50.784Z,53.30
2019-02-03T04:43:50.775Z,52.00
2019-02-03T04:44:50.764Z,53.20
2019-02-03T04:45:50.773Z,52.60
2019-02-03T04:46:50.971Z,53.00
2019-02-03T04:47:50.793Z,53.50
2019-02-03T04:48:50.766Z,51.70
2019-02-03T04:49:50.762Z,51.50
2019-02-03T04:50:50.931Z,51.40
2019-02-03T04:51:50.767Z,52.90
2019-02-03T04:52:50.808Z,50.70
2019-02-03T04:53:50.770Z,51.30
2019-02-03T04:54:50.777Z,52.00
2019-02-03T04:55:50.770Z,52.10
2019-02-03T04:56:50.769Z,51.20
2019-02-03T04:57:50.769Z,51.30
2019-02-03T04:58:50.772Z,50.90
2019-02-03T04:59:50.770Z,49.60
2019-02-03T05:00:50.778Z,49.70
2019-02-03T05:01:50.775Z,49.80
2019-02-03T05:02:50.915Z,49.30
2019-02-03T05:03:50.763Z,49.40
2019-02-03T05:04:50.787Z,48.90
2019-02-03T05:05:50.770Z,48.30
2019-02-03T05:06:50.770Z,48.20
2019-02-03T05:07:50.770Z,48.40
2019-02-03T05:08:50.776Z,48.40
2019-02-03T05:09:50.770Z,48.00
2019-02-03T05:10:50.776Z,47.40
2019-02-03T05:11:50.767Z,47.50
2019-02-03T05:12:50.772Z,47.20
2019-02-03T05:13:50.776Z,46.60
2019-02-03T05:14:50.790Z,46.80
2019-02-03T05:15:50.783Z,45.80
2019-02-03T05:16:50.777Z,45.90
2019-02-03T05:17:50.786Z,45.40
2019-02-03T05:18:50.782Z,47.50
2019-02-03T05:19:50.787Z,46.80
2019-02-03T05:20:50.775Z,45.00
2019-02-03T05:21:50.910Z,45.00
2019-02-03T05:22:50.779Z,46.10
2019-02-03T05:23:50.781Z,46.90
2019-02-03T05:24:50.784Z,45.00
2019-02-03T05:25:50.783Z,44.50
2019-02-03T05:26:50.789Z,44.80
2019-02-03T05:27:50.783Z,43.30
2019-02-03T05:28:50.783Z,44.60
2019-02-03T05:29:50.809Z,43.60
2019-02-03T05:30:50.794Z,44.10
2019-02-03T05:31:50.787Z,41.50
2019-02-03T05:32:50.787Z,42.60
2019-02-03T05:33:50.791Z,42.10
2019-02-03T05:34:50.792Z,41.80
2019-02-03T05:35:50.787Z,41.30
2019-02-03T05:36:50.787Z,41.60
2019-02-03T05:37:50.828Z,41.20
2019-02-03T05:38:50.791Z,42.00
2019-02-03T05:39:50.793Z,41.80
2019-02-03T05:40:50.795Z,42.00
2019-02-03T05:41:50.800Z,42.70
2019-02-03T05:42:50.796Z,42.40
2019-02-03T05:43:50.796Z,43.50
2019-02-03T05:44:50.796Z,42.60
2019-02-03T05:45:50.797Z,41.70
2019-02-03T05:46:50.797Z,42.20
2019-02-03T05:47:50.797Z,40.80
2019-02-03T05:48:50.804Z,42.80
2019-02-03T05:49:50.801Z,42.40
2019-02-03T05:50:50.803Z,42.50
2019-02-03T05:51:50.804Z,40.70
2019-02-03T05:52:50.810Z,41.00
2019-02-03T05:53:50.808Z,40.00
2019-02-03T05:54:50.804Z,40.80
2019-02-03T05:55:50.801Z,39.70
2019-02-03T05:56:50.804Z,39.20
2019-02-03T05:57:50.815Z,40.10
2019-02-03T05:58:50.816Z,38.30
2019-02-03T05:59:50.810Z,39.60
2019-02-03T06:00:50.810Z,39.20
2019-02-03T06:01:50.810Z,38.70
2019-02-03T06:02:50.818Z,38.00
2019-02-03T06:03:50.826Z,36.40
2019-02-03T06:04:50.810Z,36.40
2019-02-03T06:05:50.822Z,36.10
2019-02-03T06:06:50.823Z,35.30
2019-02-03T06:07:50.818Z,36.60
2019-02-03T06:08:50.856Z,35.40
2019-02-03T06:09:50.822Z,36.90
2019-02-03T06:10:50.817Z,35.00
2019-02-03T06:11:50.810Z,38.00
2019-02-03T06:12:50.821Z,35.10
2019-02-03T06:13:50.821Z,36.10
2019-02-03T06:14:50.829Z,36.00
2019-02-03T06:15:50.839Z,35.90
2019-02-03T06:16:50.825Z,34.80
2019-02-03T06:17:50.823Z,36.60
2019-02-03T06:18:50.830Z,37.10
2019-02-03T06:19:50.828Z,35.60
2019-02-03T06:20:50.828Z,34.00
2019-02-03T06:21:50.834Z,34.80
2019-02-03T06:22:50.831Z,35.40
2019-02-03T06:23:50.844Z,36.10
2019-02-03T06:24:51.875Z,35.30
2019-02-03T06:25:50.835Z,37.10
2019-02-03T06:26:50.827Z,36.70
2019-02-03T06:27:50.833Z,37.00
2019-02-03T06:28:50.827Z,34.10
2019-02-03T06:29:50.835Z,35.70
2019-02-03T06:30:50.843Z,34.30
2019-02-03T06:31:50.843Z,35.70
2019-02-03T06:32:50.842Z,35.60
2019-02-03T06:33:50.836Z,35.00
2019-02-03T06:34:50.840Z,35.50
2019-02-03T06:35:50.839Z,34.90
2019-02-03T06:36:51.948Z,34.90
2019-02-03T06:37:50.843Z,34.70
2019-02-03T06:38:50.843Z,33.60
2019-02-03T06:39:50.843Z,33.70
2019-02-03T06:40:50.846Z,33.40
2019-02-03T06:41:50.989Z,31.20
2019-02-03T06:42:50.843Z,31.20
2019-02-03T06:43:50.848Z,33.10
2019-02-03T06:44:50.856Z,31.00
2019-02-03T06:45:50.844Z,32.70
2019-02-03T06:46:50.851Z,30.80
2019-02-03T06:47:50.864Z,30.30
2019-02-03T06:48:50.856Z,31.30
2019-02-03T06:49:50.850Z,30.20
2019-02-03T06:50:50.847Z,30.40
2019-02-03T06:51:50.859Z,30.10
2019-02-03T06:52:50.862Z,28.50
2019-02-03T06:53:50.852Z,28.10
2019-02-03T06:54:50.853Z,29.30
2019-02-03T06:55:50.857Z,27.90
2019-02-03T06:56:50.857Z,28.60
2019-02-03T06:57:50.855Z,28.20
2019-02-03T06:58:50.858Z,28.90
2019-02-03T06:59:51.415Z,28.40
2019-02-03T07:00:50.867Z,27.80
2019-02-03T07:01:50.868Z,28.20
2019-02-03T07:02:50.859Z,27.10
2019-02-03T07:03:50.868Z,28.50
2019-02-03T07:04:50.862Z,25.80
2019-02-03T07:05:50.862Z,26.50
2019-02-03T07:06:50.860Z,26.10
2019-02-03T07:07:50.863Z,26.30
2019-02-03T07:08:50.871Z,24.40
2019-02-03T07:10:00.061Z,27.00
2019-02-03T07:10:50.871Z,25.20
2019-02-03T07:11:50.871Z,26.10
2019-02-03T07:12:50.876Z,25.40
2019-02-03T07:13:50.871Z,25.20
2019-02-03T07:14:50.873Z,24.10
2019-02-03T07:15:50.871Z,24.70
2019-02-03T07:16:50.871Z,24.00
2019-02-03T07:17:50.872Z,23.70
2019-02-03T07:18:50.874Z,20.80
2019-02-03T07:19:50.878Z,21.40
2019-02-03T07:20:50.883Z,21.30
2019-02-03T07:21:50.875Z,22.80
2019-02-03T07:22:50.898Z,20.30
2019-02-03T07:23:50.883Z,20.80
2019-02-03T07:24:50.879Z,20.70
2019-02-03T07:25:50.884Z,19.80
2019-02-03T07:26:50.882Z,18.20
2019-02-03T07:27:50.881Z,17.60
2019-02-03T07:28:50.882Z,19.70
2019-02-03T07:29:50.886Z,18.90
2019-02-03T07:30:50.884Z,16.90
2019-02-03T07:31:50.886Z,15.10
2019-02-03T07:32:50.887Z,17.10
2019-02-03T07:33:50.887Z,17.50
2019-02-03T07:34:50.883Z,17.90
2019-02-03T07:35:50.888Z,16.00
2019-02-03T07:36:50.892Z,15.60
2019-02-03T07:37:50.910Z,18.00
2019-02-03T07:38:50.894Z,17.30
2019-02-03T07:39:50.891Z,17.50
2019-02-03T07:40:50.894Z,16.80
2019-02-03T07:41:50.892Z,17.50
2019-02-03T07:42:50.904Z,15.80
2019-02-03T07:43:50.920Z,16.10
2019-02-03T07:44:50.911Z,15.90
2019-02-03T07:45:50.897Z,14.90
2019-02-03T07:46:50.908Z,15.90
2019-02-03T07:47:50.905Z,17.30
2019-02-03T07:48:50.899Z,15.40
2019-02-03T07:49:50.911Z,15.90
2019-02-03T07:50:50.902Z,14.50
2019-02-03T07:51:50.902Z,13.30
2019-02-03T07:52:50.900Z,15.20
2019-02-03T07:53:50.906Z,14.50
2019-02-03T07:54:50.896Z,14.70
2019-02-03T07:55:50.906Z,14.30
2019-02-03T07:56:50.907Z,14.70
2019-02-03T07:57:50.911Z,15.40
2019-02-03T07:58:50.907Z,15.60
2019-02-03T07:59:50.908Z,14.00
2019-02-03T08:00:50.909Z,13.60
2019-02-03T08:01:50.913Z,14.30
2019-02-03T08:02:50.911Z,13.70
2019-02-03T08:03:50.909Z,13.50
2019-02-03T08:04:50.914Z,13.10
2019-02-03T08:05:50.913Z,13.60
2019-02-03T08:06:50.914Z,13.90
2019-02-03T08:07:50.911Z,13.30
2019-02-03T08:08:50.913Z,13.80
2019-02-03T08:09:50.926Z,13.30
2019-02-03T08:10:50.919Z,12.70
2019-02-03T08:11:50.910Z,13.30
2019-02-03T08:12:50.945Z,12.80
2019-02-03T08:13:50.928Z,12.60
2019-02-03T08:14:50.931Z,11.60
2019-02-03T08:15:50.923Z,12.10
2019-02-03T08:16:50.921Z,11.60
2019-02-03T08:17:50.928Z,11.20
2019-02-03T08:18:50.938Z,10.00
2019-02-03T08:19:51.013Z,11.20
2019-02-03T08:20:50.924Z,11.50
2019-02-03T08:21:50.926Z,11.60
2019-02-03T08:22:50.921Z,11.70
2019-02-03T08:23:51.347Z,11.20
2019-02-03T08:24:50.931Z,11.30
2019-02-03T08:25:54.871Z,10.30
2019-02-03T08:27:50.940Z,10.80
2019-02-03T08:28:50.938Z,10.00
2019-02-03T08:29:50.939Z,10.90
2019-02-03T08:30:50.961Z,10.80
2019-02-03T08:31:50.943Z,10.20
2019-02-03T08:32:50.942Z,10.80
2019-02-03T08:33:50.948Z,11.00
2019-02-03T08:34:51.441Z,10.50
2019-02-03T08:35:51.339Z,10.50
2019-02-03T08:37:51.204Z,10.50
2019-02-03T08:38:50.961Z,9.30
2019-02-03T08:39:51.068Z,9.30
2019-02-03T08:40:50.964Z,9.70
2019-02-03T08:41:51.111Z,10.20
2019-02-03T08:42:51.109Z,10.60
2019-02-03T08:43:50.969Z,9.30
2019-02-03T08:44:50.973Z,10.40
2019-02-03T08:45:50.974Z,9.10
2019-02-03T08:46:50.966Z,8.40
2019-02-03T08:47:50.963Z,9.60
2019-02-03T08:48:50.968Z,9.40
2019-02-03T08:49:50.968Z,8.90
2019-02-03T08:50:50.978Z,8.80
2019-02-03T08:51:51.234Z,8.40
2019-02-03T08:52:51.417Z,8.60
2019-02-03T08:53:50.985Z,8.40
2019-02-03T08:54:58.379Z,8.70
2019-02-03T08:55:50.986Z,8.30
2019-02-03T08:56:50.969Z,8.90
2019-02-03T08:57:51.060Z,9.30
2019-02-03T08:58:50.974Z,7.80
2019-02-03T08:59:51.024Z,8.40
2019-02-03T09:00:50.988Z,8.60
2019-02-03T09:01:50.998Z,8.10
2019-02-03T09:02:50.999Z,7.90
2019-02-03T09:03:51.007Z,9.10
2019-02-03T09:04:51.000Z,8.60
2019-02-03T09:05:50.991Z,8.20
2019-02-03T09:06:50.993Z,8.60
2019-02-03T09:07:51.012Z,8.60
2019-02-03T09:08:51.015Z,8.20
2019-02-03T09:09:50.999Z,8.60
2019-02-03T09:10:53.773Z,8.80
2019-02-03T09:11:51.017Z,9.00
2019-02-03T09:12:51.152Z,8.30
2019-02-03T09:13:50.994Z,8.40
2019-02-03T09:14:51.001Z,8.40
2019-02-03T09:15:52.070Z,9.00
2019-02-03T09:16:51.016Z,8.40
2019-02-03T09:17:51.010Z,8.90
2019-02-03T09:18:51.101Z,8.80
2019-02-03T09:19:51.025Z,8.40
2019-02-03T09:25:33.041Z,7.80
2019-02-03T09:26:33.012Z,8.10
2019-02-03T09:27:33.010Z,7.30
2019-02-03T09:28:33.023Z,6.50
2019-02-03T09:29:33.015Z,7.00
2019-02-03T09:30:33.023Z,7.10
2019-02-03T09:31:33.019Z,6.00
2019-02-03T09:32:33.026Z,7.40
2019-02-03T09:33:33.039Z,6.60
2019-02-03T09:34:33.129Z,6.90
2019-02-03T09:35:33.040Z,7.00
2019-02-03T09:36:33.043Z,7.10
2019-02-03T09:37:33.049Z,6.90
2019-02-03T09:38:33.052Z,5.90
2019-02-03T09:39:33.054Z,6.20
2019-02-03T09:40:33.059Z,7.10
2019-02-03T09:41:33.075Z,6.70
2019-02-03T09:42:33.071Z,7.40
2019-02-03T09:43:33.094Z,6.60
2019-02-03T09:44:33.104Z,7.10
2019-02-03T09:45:33.120Z,6.40
2019-02-03T09:46:33.128Z,6.20
2019-02-03T09:47:33.132Z,6.30
2019-02-03T09:48:33.139Z,6.00
2019-02-03T09:49:33.160Z,6.00
2019-02-03T09:50:33.169Z,5.80
2019-02-03T09:51:33.177Z,6.60
2019-02-03T09:52:33.335Z,6.10
2019-02-03T09:53:33.205Z,6.00
2019-02-03T09:54:33.212Z,5.50
2019-02-03T09:55:33.220Z,5.60
2019-02-03T09:56:33.252Z,6.00
2019-02-03T09:57:33.250Z,5.90
2019-02-03T09:59:33.274Z,5.40
2019-02-03T10:00:33.290Z,4.60
2019-02-03T10:01:33.299Z,5.80
2019-02-03T10:02:33.319Z,6.00
2019-02-03T10:03:33.332Z,5.90
2019-02-03T10:04:33.346Z,6.50
2019-02-03T10:05:33.354Z,6.40
2019-02-03T10:06:33.367Z,6.10
2019-02-03T10:07:33.382Z,6.10
2019-02-03T10:08:40.334Z,5.70
2019-02-03T10:09:33.415Z,6.20
2019-02-03T10:10:33.438Z,5.70
2019-02-03T10:11:33.447Z,6.80
2019-02-03T10:12:33.454Z,6.60
2019-02-03T10:13:33.476Z,5.60
2019-02-03T10:14:33.482Z,4.90
2019-02-03T10:15:33.495Z,5.20
2019-02-03T10:16:33.507Z,5.60
2019-02-03T10:17:33.532Z,6.00
2019-02-03T10:18:33.537Z,4.80
2019-02-03T10:19:33.552Z,5.20
2019-02-03T10:20:33.572Z,5.70
2019-02-03T10:21:33.589Z,4.90
2019-02-03T10:22:33.610Z,5.80
2019-02-03T10:23:33.607Z,6.60
2019-02-03T10:24:41.992Z,5.90
2019-02-03T10:25:33.652Z,6.30
2019-02-03T10:26:33.660Z,5.50
2019-02-03T10:27:33.675Z,5.80
2019-02-03T10:28:33.696Z,5.20
2019-02-03T10:29:33.701Z,5.50
2019-02-03T10:30:33.725Z,5.80
2019-02-03T10:31:33.739Z,5.30
2019-02-03T10:32:33.748Z,5.70
2019-02-03T10:33:33.767Z,5.30
2019-02-03T10:34:33.785Z,5.80
2019-02-03T10:35:33.790Z,5.50
2019-02-03T10:36:33.817Z,5.60
2019-02-03T10:37:33.838Z,5.30
2019-02-03T10:38:33.987Z,4.80
2019-02-03T10:39:33.862Z,5.90
2019-02-03T10:40:33.865Z,5.60
2019-02-03T10:41:34.060Z,5.40
2019-02-03T10:42:33.908Z,5.40
2019-02-03T10:43:33.914Z,4.70
2019-02-03T10:44:33.932Z,4.90
2019-02-03T10:45:33.953Z,5.40
2019-02-03T10:46:33.965Z,5.40
2019-02-03T10:47:34.044Z,4.90
2019-02-03T10:48:33.992Z,4.60
2019-02-03T10:49:34.005Z,5.20
2019-02-03T10:50:34.029Z,5.10
2019-02-03T10:51:34.051Z,4.70
2019-02-03T10:52:34.057Z,5.20
2019-02-03T10:53:34.071Z,5.30
2019-02-03T10:54:34.093Z,4.80
2019-02-03T10:55:34.108Z,4.90
2019-02-03T10:56:34.134Z,4.90
2019-02-03T10:57:34.135Z,4.70
2019-02-03T10:58:34.147Z,5.40
2019-02-03T10:59:34.163Z,4.80
2019-02-03T11:00:34.181Z,4.40
2019-02-03T11:01:34.191Z,5.10
2019-02-03T11:02:34.204Z,4.10
2019-02-03T11:03:34.217Z,4.80
2019-02-03T11:04:34.235Z,3.50
2019-02-03T11:05:34.243Z,4.10
2019-02-03T11:06:34.251Z,4.40
2019-02-03T11:07:34.268Z,5.00
2019-02-03T11:08:34.283Z,5.10
2019-02-03T11:09:34.285Z,4.40
2019-02-03T11:10:34.294Z,3.80
2019-02-03T11:11:36.592Z,4.60
2019-02-03T11:12:34.323Z,3.90
2019-02-03T11:13:34.327Z,4.40
2019-02-03T11:14:34.338Z,5.70
2019-02-03T11:15:34.350Z,4.40
2019-02-03T11:16:34.352Z,4.30
2019-02-03T11:17:34.381Z,4.00
2019-02-03T11:18:34.387Z,4.10
2019-02-03T11:19:34.399Z,4.10
2019-02-03T11:20:34.414Z,4.30
2019-02-03T11:21:34.404Z,4.10
2019-02-03T11:22:34.422Z,5.30
2019-02-03T11:23:34.434Z,5.30
2019-02-03T11:24:34.444Z,4.50
2019-02-03T11:25:34.456Z,3.80
2019-02-03T11:26:34.466Z,3.90
2019-02-03T11:27:34.470Z,3.80
2019-02-03T11:28:34.478Z,3.70
2019-02-03T11:29:34.501Z,3.90
2019-02-03T11:30:34.504Z,4.80
2019-02-03T11:31:34.524Z,3.80
2019-02-03T11:32:34.526Z,4.10
2019-02-03T11:33:34.539Z,3.80
2019-02-03T11:34:34.547Z,3.90
2019-02-03T11:35:34.558Z,4.30
2019-02-03T11:36:34.569Z,4.10
2019-02-03T11:37:34.577Z,4.10
2019-02-03T11:38:34.591Z,3.70
2019-02-03T11:39:34.590Z,3.70
2019-02-03T11:40:34.608Z,3.10
2019-02-03T11:41:34.608Z,3.80
2019-02-03T11:42:34.621Z,4.40
2019-02-03T11:43:34.651Z,4.30
2019-02-03T11:44:34.635Z,3.20
2019-02-03T11:45:34.654Z,3.70
2019-02-03T11:46:34.790Z,4.00
2019-02-03T11:47:34.658Z,4.60
2019-02-03T11:48:34.667Z,4.40
2019-02-03T11:49:34.676Z,3.70
2019-02-03T11:50:34.684Z,4.00
2019-02-03T11:51:34.695Z,4.10
2019-02-03T11:52:34.707Z,3.70
2019-02-03T11:53:34.713Z,4.20
2019-02-03T11:54:34.719Z,3.70
2019-02-03T11:55:34.728Z,4.00
2019-02-03T11:56:34.726Z,3.70
2019-02-03T11:57:34.746Z,3.60
2019-02-03T11:58:34.753Z,3.90
2019-02-03T11:59:34.765Z,4.40
2019-02-03T12:00:34.768Z,4.00
2019-02-03T12:01:34.769Z,3.00
2019-02-03T12:02:41.775Z,3.20
2019-02-03T12:03:34.882Z,3.50
2019-02-03T12:04:34.795Z,3.90
2019-02-03T12:05:34.825Z,3.50
2019-02-03T12:06:34.810Z,3.60
2019-02-03T12:07:34.816Z,3.90
2019-02-03T12:08:34.830Z,3.70
2019-02-03T12:09:34.836Z,3.90
2019-02-03T12:10:34.832Z,3.90
2019-02-03T12:11:34.836Z,3.90
2019-02-03T12:12:34.848Z,3.60
2019-02-03T12:13:34.850Z,4.30
2019-02-03T12:14:34.854Z,4.00
2019-02-03T12:15:34.876Z,3.90
2019-02-03T12:16:34.881Z,3.90
2019-02-03T12:17:34.880Z,3.60
2019-02-03T12:18:34.895Z,3.90
2019-02-03T12:19:34.914Z,4.20
2019-02-03T12:20:34.900Z,3.90
2019-02-03T12:21:34.909Z,3.30
2019-02-03T12:22:34.915Z,3.70
2019-02-03T12:23:34.922Z,4.00
2019-02-03T12:24:34.928Z,4.40
2019-02-03T12:25:34.979Z,3.50
2019-02-03T12:26:36.494Z,3.60
2019-02-03T12:27:34.950Z,3.50
2019-02-03T12:28:34.952Z,3.40
2019-02-03T12:29:34.960Z,4.40
2019-02-03T12:30:34.961Z,5.40
2019-02-03T12:31:34.981Z,4.00
2019-02-03T12:32:34.984Z,4.60
2019-02-03T12:33:34.985Z,4.20
2019-02-03T12:34:35.008Z,6.10
2019-02-03T12:35:35.008Z,5.00
2019-02-03T12:36:35.005Z,4.10
2019-02-03T12:37:35.014Z,4.50
2019-02-03T12:38:35.023Z,5.00
2019-02-03T12:39:35.031Z,4.10
2019-02-03T12:40:35.041Z,4.30
2019-02-03T12:41:35.045Z,3.90
2019-02-03T12:42:35.054Z,4.00
2019-02-03T12:43:35.070Z,4.20
2019-02-03T12:44:35.073Z,3.80
2019-02-03T12:45:35.075Z,4.20
2019-02-03T12:46:35.088Z,4.30
2019-02-03T12:47:35.112Z,4.30
2019-02-03T12:48:35.101Z,4.50
2019-02-03T12:49:35.105Z,4.80
2019-02-03T12:50:35.124Z,4.40
2019-02-03T12:51:35.124Z,4.10
2019-02-03T12:52:35.139Z,4.10
2019-02-03T12:53:35.139Z,4.80
2019-02-03T12:54:35.160Z,4.20
2019-02-03T12:55:35.152Z,4.00
2019-02-03T12:56:35.160Z,4.50
2019-02-03T12:57:35.169Z,4.50
2019-02-03T12:58:35.172Z,3.60
2019-02-03T12:59:35.181Z,4.00
2019-02-03T13:00:35.202Z,3.80
2019-02-03T13:01:35.191Z,4.20
2019-02-03T13:02:35.221Z,3.70
2019-02-03T13:03:35.290Z,4.10
2019-02-03T13:04:35.204Z,4.60
2019-02-03T13:05:35.222Z,4.00
2019-02-03T13:06:35.228Z,4.40
2019-02-03T13:07:35.229Z,4.00
2019-02-03T13:08:35.246Z,4.50
2019-02-03T13:09:35.247Z,4.90
2019-02-03T13:10:35.255Z,4.20
2019-02-03T13:11:37.485Z,4.50
2019-02-03T13:12:35.267Z,4.20
2019-02-03T13:13:35.268Z,4.30
2019-02-03T13:14:35.277Z,4.20
2019-02-03T13:15:35.292Z,4.30